Time;durP1;ratioP1;P1;durP2;ratioP2;P2;SDS_P1;SDS_P2;PMS_P1;PMS_P2;Temp;Humidity;BMP_temperature;BMP_pressure;BME280_temperature;BME280_humidity;BME280_pressure;Samples;Min_cycle;Max_cycle;Signal;HPM_P1;HPM_P2
2022/05/02 00:01:18;;;;;;;10.82;7.00;;;;;;;;;;5138363;27;20452;-87
2022/05/02 00:04:02;;;;;;;9.43;6.47;;;;;;;;;;5138453;27;20041;-87
2022/05/02 00:06:47;;;;;;;9.70;6.40;;;;;;;;;;5138869;27;20042;-87
2022/05/02 00:09:32;;;;;;;9.63;6.93;;;;;;;;;;5154576;27;20118;-87
2022/05/02 00:12:16;;;;;;;9.98;7.30;;;;;;;;;;5138451;27;20079;-87
2022/05/02 00:15:00;;;;;;;9.30;6.18;;;;;;;;;;5154065;27;20048;-87
2022/05/02 00:17:57;;;;;;;10.85;7.35;;;;;;;;;;5138705;27;20042;-87
2022/05/02 00:20:42;;;;;;;14.15;7.82;;;;;;;;;;5125883;27;20050;-87
2022/05/02 00:23:28;;;;;;;10.93;7.00;;;;;;;;;;5124406;27;20122;-87
2022/05/02 00:26:13;;;;;;;10.50;7.35;;;;;;;;;;5138420;27;20107;-87
2022/05/02 00:28:57;;;;;;;9.95;7.20;;;;;;;;;;5124534;27;20045;-87
2022/05/02 00:31:42;;;;;;;15.57;7.50;;;;;;;;;;5139007;27;20230;-87
2022/05/02 00:34:26;;;;;;;14.20;7.45;;;;;;;;;;5154333;27;20237;-87
2022/05/02 00:37:11;;;;;;;9.50;7.15;;;;;;;;;;5138661;27;20030;-88
2022/05/02 00:39:56;;;;;;;13.50;7.82;;;;;;;;;;5158403;27;20049;-86
2022/05/02 00:42:43;;;;;;;18.13;9.02;;;;;;;;;;5163683;27;20106;-85
2022/05/02 00:45:27;;;;;;;10.63;7.38;;;;;;;;;;5178119;27;20041;-87
2022/05/02 00:48:12;;;;;;;13.60;7.65;;;;;;;;;;5162589;27;20041;-88
2022/05/02 00:50:57;;;;;;;12.75;7.93;;;;;;;;;;5142393;27;20037;-87
2022/05/02 00:53:42;;;;;;;11.05;7.90;;;;;;;;;;5124843;27;20046;-87
2022/05/02 00:56:27;;;;;;;12.48;8.43;;;;;;;;;;5154658;27;20038;-87
2022/05/02 00:59:15;;;;;;;13.77;9.07;;;4.60;99.90;;;;;;5139343;27;20041;-87
2022/05/02 01:01:59;;;;;;;11.00;7.32;;;;;;;;;;5159244;27;20046;-87
2022/05/02 01:04:44;;;;;;;12.85;8.25;;;;;;;;;;5142499;27;20118;-87
2022/05/02 01:07:29;;;;;;;16.13;8.57;;;;;;;;;;5141702;27;20126;-86
2022/05/02 01:10:17;;;;;;;13.40;8.30;;;;;;;;;;5127506;27;20139;-87
2022/05/02 01:13:01;;;;;;;15.27;9.95;;;;;;;;;;5141829;27;20505;-87
2022/05/02 01:15:45;;;;;;;14.07;9.15;;;;;;;;;;5127470;27;20072;-86
2022/05/02 01:18:30;;;;;;;17.85;9.82;;;;;;;;;;5126632;27;20038;-87
2022/05/02 01:21:16;;;;;;;13.27;8.73;;;;;;;;;;5156783;27;20493;-87
2022/05/02 01:24:02;;;;;;;13.07;9.00;;;;;;;;;;5157180;27;20091;-86
2022/05/02 01:26:46;;;;;;;17.25;9.45;;;;;;;;;;5141508;27;20225;-87
2022/05/02 01:29:32;;;;;;;17.05;9.55;;;;;;;;;;5141197;27;20508;-86
2022/05/02 01:32:17;;;;;;;16.55;9.93;;;;;;;;;;5140953;27;20041;-87
2022/05/02 01:35:02;;;;;;;17.90;10.35;;;;;;;;;;5141484;27;20049;-86
2022/05/02 01:37:46;;;;;;;12.32;8.77;;;;;;;;;;5141409;27;20493;-87
2022/05/02 01:40:31;;;;;;;15.73;10.15;;;;;;;;;;5140703;27;20125;-87
2022/05/02 01:43:16;;;;;;;16.73;9.50;;;;;;;;;;5156553;27;20201;-87
2022/05/02 01:46:01;;;;;;;16.05;9.75;;;;;;;;;;5126686;27;20034;-87
2022/05/02 01:48:45;;;;;;;15.25;10.93;;;;;;;;;;5126707;27;20045;-87
2022/05/02 01:51:30;;;;;;;17.15;10.18;;;;;;;;;;5156198;27;20046;-87
2022/05/02 01:54:15;;;;;;;14.93;10.25;;;;;;;;;;5126135;27;20078;-87
2022/05/02 01:56:59;;;;;;;18.80;11.15;;;;;;;;;;5156709;27;20079;-87
2022/05/02 01:59:43;;;;;;;17.38;10.13;;;;;;;;;;5126492;27;20123;-87
2022/05/02 02:02:28;;;;;;;18.60;10.90;;;;;;;;;;5140454;27;20034;-87
2022/05/02 02:08:23;;;;;;;17.10;10.32;;;;;;;;;;5155968;27;20038;-87
2022/05/02 02:11:09;;;;;;;20.35;10.93;;;4.00;99.90;;;;;;5140653;27;20118;-87
2022/05/02 02:13:54;;;;;;;17.83;10.30;;;;;;;;;;5140140;27;20079;-86
2022/05/02 02:16:38;;;;;;;17.83;10.77;;;;;;;;;;5140055;27;20121;-86
2022/05/02 02:19:23;;;;;;;16.25;10.65;;;;;;;;;;5125644;27;20050;-86
2022/05/02 02:22:16;;;;;;;16.15;10.63;;;;;;;;;;5134477;27;20058;-86
2022/05/02 02:25:04;;;;;;;16.55;10.73;;;;;;;;;;5134457;27;20038;-86
2022/05/02 02:27:48;;;;;;;15.25;10.07;;;;;;;;;;5134361;27;20042;-86
2022/05/02 02:30:34;;;;;;;15.10;10.75;;;;;;;;;;5134830;27;20146;-87
2022/05/02 02:33:20;;;;;;;17.88;11.73;;;;;;;;;;5119460;27;20064;-87
2022/05/02 02:36:08;;;;;;;17.13;10.02;;;;;;;;;;5134092;27;20030;-86
2022/05/02 02:38:52;;;;;;;15.70;11.10;;;;;;;;;;5119627;27;20188;-87
2022/05/02 02:41:37;;;;;;;16.25;10.75;;;;;;;;;;5133472;27;20170;-87
2022/05/02 02:44:21;;;;;;;17.05;11.15;;;;;;;;;;5119158;27;20046;-87
2022/05/02 02:47:06;;;;;;;16.88;11.02;;;;;;;;;;5106306;28;20062;-87
2022/05/02 02:49:50;;;;;;;17.05;10.15;;;;;;;;;;5099066;28;20399;-87
2022/05/02 02:52:35;;;;;;;17.58;11.30;;;;;;;;;;5112661;28;20506;-87
2022/05/02 02:55:19;;;;;;;17.80;11.55;;;;;;;;;;5112846;28;20481;-86
2022/05/02 02:58:04;;;;;;;16.10;10.82;;;;;;;;;;5116395;28;20437;-87
2022/05/02 03:00:49;;;;;;;16.67;10.93;;;;;;;;;;5113952;28;20042;-87
2022/05/02 03:03:33;;;;;;;17.42;10.30;;;;;;;;;;5112599;28;20035;-87
2022/05/02 03:06:18;;;;;;;18.42;12.38;;;;;;;;;;5113942;28;20034;-87
2022/05/02 03:09:03;;;;;;;17.00;11.40;;;;;;;;;;5113046;28;20151;-87
2022/05/02 03:11:47;;;;;;;19.08;11.65;;;;;;;;;;5113390;28;20039;-87
2022/05/02 03:14:32;;;;;;;20.60;11.93;;;;;;;;;;5112445;28;20502;-87
2022/05/02 03:17:16;;;;;;;17.92;11.43;;;;;;;;;;5112852;28;20042;-87
2022/05/02 03:20:01;;;;;;;17.13;11.48;;;;;;;;;;5112586;28;20042;-87
2022/05/02 03:22:46;;;;;;;17.02;11.55;;;;;;;;;;5131550;27;20046;-87
2022/05/02 03:25:30;;;;;;;16.08;11.52;;;;;;;;;;5132809;27;20042;-87
2022/05/02 03:28:15;;;;;;;19.60;12.45;;;;;;;;;;5133465;27;20088;-87
2022/05/02 03:31:00;;;;;;;16.40;11.65;;;;;;;;;;5133084;27;20076;-87
2022/05/02 03:33:44;;;;;;;21.08;12.80;;;;;;;;;;5132709;27;20113;-87
2022/05/02 03:36:29;;;;;;;20.45;12.43;;;;;;;;;;5132722;27;20033;-86
2022/05/02 03:39:14;;;;;;;20.58;13.43;;;;;;;;;;5132789;27;20108;-86
2022/05/02 03:41:58;;;;;;;18.23;12.65;;;;;;;;;;5133020;27;20046;-87
2022/05/02 03:44:43;;;;;;;21.27;12.30;;;;;;;;;;5117948;27;20372;-87
2022/05/02 03:47:27;;;;;;;18.92;12.65;;;;;;;;;;5132582;27;20070;-86
2022/05/02 03:50:12;;;;;;;21.27;14.05;;;;;;;;;;5118664;28;20095;-87
2022/05/02 03:52:56;;;;;;;22.98;14.20;;;;;;;;;;5133424;27;20034;-88
2022/05/02 03:55:42;;;;;;;24.75;13.82;;;;;;;;;;5132296;27;20083;-86
2022/05/02 03:58:27;;;;;;;20.38;13.70;;;;;;;;;;5133419;27;20079;-87
2022/05/02 04:01:12;;;;;;;22.27;13.70;;;;;;;;;;5132411;27;20490;-87
2022/05/02 04:03:56;;;;;;;20.88;12.60;;;;;;;;;;5132685;28;20029;-88
2022/05/02 04:06:41;;;;;;;20.58;13.45;;;;;;;;;;5132223;28;20085;-87
2022/05/02 04:09:25;;;;;;;18.58;12.52;;;;;;;;;;5118314;28;20050;-87
2022/05/02 04:12:10;;;;;;;18.77;11.88;;;;;;;;;;5117976;28;20096;-86
2022/05/02 04:14:55;;;;;;;22.85;13.43;;;;;;;;;;5132712;28;20039;-87
2022/05/02 04:17:39;;;;;;;22.27;13.98;;;;;;;;;;5117753;28;20088;-87
2022/05/02 04:20:24;;;;;;;22.70;13.82;;;3.20;99.90;;;;;;5132514;28;20046;-87
2022/05/02 04:23:11;;;;;;;24.63;14.00;;;;;;;;;;5132562;28;20453;-86
2022/05/02 04:25:56;;;;;;;21.75;12.70;;;;;;;;;;5133790;28;20033;-86
2022/05/02 04:28:41;;;;;;;21.98;12.95;;;;;;;;;;5132102;28;20038;-87
2022/05/02 04:31:25;;;;;;;18.75;13.00;;;;;;;;;;5133709;28;20168;-87
2022/05/02 04:34:10;;;;;;;24.20;14.15;;;;;;;;;;5132437;28;20038;-87
2022/05/02 04:36:55;;;;;;;22.45;13.35;;;;;;;;;;5121406;27;20042;-87
2022/05/02 04:39:39;;;;;;;26.13;14.95;;;;;;;;;;5136128;27;20039;-87
2022/05/02 04:42:24;;;;;;;23.67;14.05;;;;;;;;;;5136547;27;20532;-86
2022/05/02 04:45:09;;;;;;;25.90;14.63;;;;;;;;;;5136271;27;20232;-86
2022/05/02 04:47:54;;;;;;;22.98;14.50;;;;;;;;;;5136076;27;20031;-87
2022/05/02 04:50:40;;;;;;;27.00;15.23;;;;;;;;;;5135936;27;20124;-87
2022/05/02 04:53:25;;;;;;;23.95;14.50;;;;;;;;;;5122265;27;20038;-86
2022/05/02 04:56:10;;;;;;;23.02;14.02;;;;;;;;;;5137284;27;20087;-87
2022/05/02 04:58:55;;;;;;;27.17;15.48;;;;;;;;;;5136828;27;20422;-87
2022/05/02 05:01:39;;;;;;;28.77;17.15;;;;;;;;;;5135896;27;20084;-87
2022/05/02 05:04:24;;;;;;;31.58;16.65;;;;;;;;;;5136147;27;20142;-87
2022/05/02 05:07:08;;;;;;;25.80;16.30;;;;;;;;;;5121633;27;20074;-87
2022/05/02 05:09:53;;;;;;;28.92;17.70;;;;;;;;;;5121393;27;20096;-87
2022/05/02 05:13:07;;;;;;;24.80;17.30;;;4.10;99.90;;;;;;5135600;27;20117;-87
2022/05/02 05:19:35;;;;;;;26.50;16.02;;;4.20;99.90;;;;;;5136773;27;20046;-87
2022/05/02 05:22:23;;;;;;;24.88;16.13;;;;;;;;;;5135481;27;20188;-87
2022/05/02 05:25:14;;;;;;;28.00;16.88;;;;;;;;;;5136490;27;20046;-87
2022/05/02 05:28:13;;;;;;;29.15;17.77;;;4.60;99.90;;;;;;5136482;27;20531;-86
2022/05/02 05:31:07;;;;;;;28.45;17.08;;;;;;;;;;5136333;27;20096;-86
2022/05/02 05:34:29;;;;;;;23.30;16.38;;;4.80;99.90;;;;;;5136745;27;20440;-87
2022/05/02 05:37:55;;;;;;;25.13;14.60;;;5.00;99.90;;;;;;5136879;27;20080;-86
2022/05/02 05:40:44;;;;;;;24.30;16.70;;;5.10;99.90;;;;;;5158197;27;20090;-89
2022/05/02 05:43:42;;;;;;;26.50;15.48;;;;;;;;;;5160060;27;20023;-85
2022/05/02 05:46:52;;;;;;;24.85;15.50;;;5.50;99.90;;;;;;5160757;27;20307;-87
2022/05/02 05:49:49;;;;;;;20.70;15.88;;;;;;;;;;5161000;27;20103;-86
2022/05/02 05:52:37;;;;;;;24.90;15.77;;;;;;;;;;5146739;27;20042;-86
2022/05/02 05:55:35;;;;;;;27.92;15.88;;;5.90;99.90;;;;;;5137021;27;20378;-87
2022/05/02 05:58:45;;;;;;;21.88;15.35;;;6.10;99.90;;;;;;5136863;27;20037;-87
2022/05/02 06:01:40;;;;;;;19.85;14.45;;;;;;;;;;5137482;27;20046;-87
2022/05/02 06:04:32;;;;;;;19.95;14.73;;;6.40;99.90;;;;;;5137834;27;20034;-86
2022/05/02 06:07:21;;;;;;;20.77;14.77;;;6.60;99.90;;;;;;5135839;27;20034;-87
2022/05/02 06:10:07;;;;;;;19.02;13.18;;;;;;;;;;5134879;27;20057;-87
2022/05/02 06:12:53;;;;;;;19.17;12.85;;;;;;;;;;5134371;27;20119;-86
2022/05/02 06:18:45;;;;;;;18.92;12.35;;;7.00;99.90;;;;;;5135654;27;20036;-87
2022/05/02 06:21:33;;;;;;;19.65;12.05;;;;;;;;;;5142076;27;20049;-87
2022/05/02 06:24:18;;;;;;;15.98;11.60;;;;;;;;;;5156125;27;20086;-87
2022/05/02 06:27:04;;;;;;;16.48;11.57;;;;;;;;;;5155701;27;20335;-87
2022/05/02 06:29:49;;;;;;;16.35;10.98;;;;;;;;;;5139985;27;20435;-87
2022/05/02 06:32:37;;;;;;;15.25;10.27;;;;;;;;;;5125912;27;20502;-86
2022/05/02 06:35:23;;;;;;;16.00;10.57;;;;;;;;;;5140227;27;20443;-88
2022/05/02 06:38:17;;;;;;;15.70;10.30;;;;;;;;;;5139749;27;20534;-87
2022/05/02 06:41:11;;;;;;;14.85;9.50;;;;;;;;;;5139721;27;20088;-87
2022/05/02 06:43:55;;;;;;;14.40;9.45;;;;;;;;;;5139407;27;20033;-87
2022/05/02 06:46:48;;;;;;;13.73;9.18;;;;;;;;;;5139923;27;20049;-86
2022/05/02 06:49:34;;;;;;;13.40;8.63;;;;;;;;;;5139918;27;20087;-87
2022/05/02 06:52:20;;;;;;;15.35;9.55;;;;;;;;;;5139754;27;20038;-87
2022/05/02 06:55:30;;;;;;;13.45;8.55;;;9.40;99.90;;;;;;5139240;27;20033;-87
2022/05/02 06:58:38;;;;;;;11.73;7.60;;;;;;;;;;5138961;27;20118;-87
2022/05/02 07:01:23;;;;;;;12.45;7.63;;;;;;;;;;5138993;27;20049;-86
2022/05/02 07:04:28;;;;;;;10.27;6.60;;;;;;;;;;5138936;27;20061;-87
2022/05/02 07:07:31;;;;;;;10.30;7.65;;;;;;;;;;5139517;27;20037;-87
2022/05/02 07:10:26;;;;;;;17.33;7.93;;;;;;;;;;5139150;27;20038;-87
2022/05/02 07:13:13;;;;;;;13.32;7.03;;;;;;;;;;5138900;27;20041;-87
2022/05/02 07:16:07;;;;;;;11.55;7.05;;;;;;;;;;5138797;27;20175;-87
2022/05/02 07:18:58;;;;;;;11.30;6.55;;;;;;;;;;5138674;27;20076;-87
2022/05/02 07:21:57;;;;;;;10.18;6.28;;;;;;;;;;5139080;27;20049;-87
2022/05/02 07:25:13;;;;;;;10.10;6.25;;;13.10;99.90;;;;;;5139268;27;20535;-87
2022/05/02 07:28:10;;;;;;;10.48;6.32;;;;;;;;;;5138775;27;20046;-87
2022/05/02 07:30:58;;;;;;;10.52;6.13;;;;;;;;;;5139092;27;20086;-88
2022/05/02 07:33:42;;;;;;;7.53;5.85;;;;;;;;;;5148552;27;20080;-87
2022/05/02 07:36:31;;;;;;;7.85;5.90;;;;;;;;;;5140563;27;20037;-87
2022/05/02 07:39:16;;;;;;;11.27;6.82;;;;;;;;;;5154130;27;20107;-87
2022/05/02 07:42:04;;;;;;;11.30;6.57;;;;;;;;;;5138370;27;20095;-87
2022/05/02 07:44:51;;;;;;;10.18;6.43;;;;;;;;;;5138953;27;20041;-87
2022/05/02 07:47:36;;;;;;;11.90;6.63;;;;;;;;;;5139020;27;20497;-87
2022/05/02 07:50:22;;;;;;;9.40;6.57;;;;;;;;;;5138727;27;20045;-87
2022/05/02 07:53:10;;;;;;;10.20;6.60;;;;;;;;;;5138286;27;20517;-88
2022/05/02 07:55:55;;;;;;;10.63;6.35;;;;;;;;;;5138209;27;20481;-87
2022/05/02 07:58:44;;;;;;;9.82;6.60;;;;;;;;;;5138569;27;20099;-87
2022/05/02 08:01:29;;;;;;;8.93;6.07;;;;;;;;;;5138542;27;20087;-87
2022/05/02 08:04:15;;;;;;;10.80;6.97;;;;;;;;;;5138052;27;20037;-87
2022/05/02 08:07:06;;;;;;;9.65;6.78;;;;;;;;;;5138165;27;20037;-87
2022/05/02 08:10:03;;;;;;;10.23;6.63;;;;;;;;;;5154172;27;20111;-87
2022/05/02 08:13:01;;;;;;;8.85;6.40;;;;;;;;;;5142755;27;20041;-87
2022/05/02 08:15:54;;;;;;;10.50;6.95;;;;;;;;;;5142534;27;20079;-87
2022/05/02 08:18:56;;;;;;;6.45;5.72;;;;;;;;;;5142627;27;20037;-87
2022/05/02 08:27:15;;;;;;;14.73;7.30;;;;;;;;;;5142216;27;20513;-86
2022/05/02 08:28:40;;;;;;;10.50;7.28;;;14.30;99.90;;;;;;5157691;27;20119;-88
2022/05/02 08:31:43;;;;;;;12.07;6.85;;;;;;;;;;5158229;27;20042;-87
2022/05/02 08:34:37;;;;;;;9.48;7.05;;;;;;;;;;5142356;27;20093;-87
2022/05/02 08:37:38;;;;;;;9.77;7.47;;;;;;;;;;5142152;27;20080;-88
2022/05/02 08:40:30;;;;;;;9.30;7.05;;;;;;;;;;5141777;27;20060;-87
2022/05/02 08:43:21;;;;;;;12.98;7.35;;;;;;;;;;5141749;27;20051;-88
2022/05/02 08:46:13;;;;;;;11.10;7.68;;;;;;;;;;5141685;27;20034;-87
2022/05/02 08:49:43;;;;;;;8.27;6.63;;;;;;;;;;5142041;27;20055;-87
2022/05/02 08:52:08;;;;;;;9.30;7.72;;;;;;;;;;5154088;27;20386;-88
2022/05/02 08:55:12;;;;;;;9.02;7.43;;;;;;;;;;5141962;27;20505;-88
2022/05/02 08:58:16;;;;;;;10.38;7.32;;;;;;;;;;5141983;27;20074;-87
2022/05/02 09:01:27;;;;;;;9.32;6.93;;;16.20;94.20;;;;;;5141869;27;20042;-87
2022/05/02 09:04:12;;;;;;;10.15;7.45;;;;;;;;;;5141330;27;20060;-87
2022/05/02 09:07:33;;;;;;;11.65;7.18;;;15.70;94.30;;;;;;5141763;27;20118;-87
2022/05/02 09:10:23;;;;;;;12.32;7.20;;;;;;;;;;5141175;27;20084;-87
2022/05/02 09:13:34;;;;;;;11.00;7.20;;;;;;;;;;5156824;27;20061;-88
2022/05/02 09:16:58;;;;;;;11.07;6.45;;;16.20;91.80;;;;;;5141233;27;20531;-87
2022/05/02 09:20:01;;;;;;;9.30;6.85;;;;;;;;;;5141590;27;20046;-87
2022/05/02 09:22:46;;;;;;;11.63;6.97;;;;;;;;;;5141071;27;20049;-88
2022/05/02 09:25:42;;;;;;;10.27;6.82;;;;;;;;;;5141432;27;20493;-87
2022/05/02 09:28:35;;;;;;;8.50;6.10;;;;;;;;;;5140883;27;20538;-88
2022/05/02 09:31:23;;;;;;;9.32;6.65;;;;;;;;;;5140633;27;20041;-88
2022/05/02 09:34:18;;;;;;;9.15;6.25;;;;;;;;;;5140869;27;20103;-87
2022/05/02 09:37:02;;;;;;;10.10;6.40;;;;;;;;;;5141135;27;20400;-88
2022/05/02 09:39:48;;;;;;;7.47;6.18;;;;;;;;;;5140923;27;20091;-88
2022/05/02 09:42:33;;;;;;;9.30;6.40;;;;;;;;;;5140997;27;20100;-87
2022/05/02 09:51:36;;;;;;;7.43;5.40;;;;;;;;;;5156648;27;20076;-88
2022/05/02 09:57:53;;;;;;;10.23;5.72;;;;;;;;;;5156761;27;20058;-87
2022/05/02 10:01:07;;;;;;;9.50;6.07;;;;;;;;;;5156423;27;20099;-87
2022/05/02 10:04:00;;;;;;;8.30;5.82;;;;;;;;;;5140602;27;20390;-86
2022/05/02 10:06:44;;;;;;;7.38;5.25;;;;;;;;;;5140557;27;20494;-88
2022/05/02 10:09:50;;;;;;;9.45;5.43;;;17.40;71.40;;;;;;5139995;27;20042;-86
2022/05/02 10:12:51;;;;;;;7.40;5.75;;;;;;;;;;5140714;27;20095;-87
2022/05/02 10:15:48;;;;;;;9.23;5.72;;;;;;;;;;5140984;27;20037;-87
2022/05/02 10:18:44;;;;;;;7.07;4.95;;;;;;;;;;5155618;27;20048;-87
2022/05/02 10:22:02;;;;;;;7.43;5.43;;;;;;;;;;5139682;27;20057;-88
2022/05/02 10:25:26;;;;;;;8.45;5.53;;;18.50;68.90;;;;;;5106124;27;20067;-87
2022/05/02 10:28:23;;;;;;;8.52;5.47;;;18.50;72.10;;;;;;5140031;27;20118;-87
2022/05/02 10:31:13;;;;;;;8.77;5.30;;;;;;;;;;5140043;27;20060;-88
2022/05/02 10:34:01;;;;;;;8.55;5.65;;;18.60;71.20;;;;;;5139247;27;20037;-87
2022/05/02 10:36:49;;;;;;;11.65;6.55;;;;;;;;;;5155781;27;20079;-88
2022/05/02 10:39:40;;;;;;;6.93;4.97;;;;;;;;;;5139640;27;20126;-89
2022/05/02 10:42:30;;;;;;;12.25;5.90;;;;;;;;;;5139674;27;20069;-88
2022/05/02 10:45:15;;;;;;;9.32;5.57;;;;;;;;;;5143446;27;20084;-89
2022/05/02 10:48:11;;;;;;;9.07;5.32;;;;;;;;;;5160388;27;20118;-87
2022/05/02 10:51:19;;;;;;;7.13;5.35;;;;;;;;;;5145826;27;20051;-88
2022/05/02 10:54:09;;;;;;;9.88;6.03;;;;;;;;;;5159340;27;20030;-86
2022/05/02 10:56:59;;;;;;;7.60;5.78;;;;;;;;;;5162348;27;20061;-87
2022/05/02 10:59:45;;;;;;;9.43;5.63;;;;;;;;;;5164144;27;20048;-85
2022/05/02 11:02:42;;;;;;;8.60;5.30;;;;;;;;;;5174058;27;20087;-87
2022/05/02 11:06:03;;;;;;;8.73;5.38;;;19.20;61.80;;;;;;5140200;27;20065;-87
2022/05/02 11:08:55;;;;;;;8.27;5.75;;;;;;;;;;5155466;27;20041;-87
2022/05/02 11:11:50;;;;;;;8.48;4.95;;;;;;;;;;5140442;27;20180;-88
2022/05/02 11:14:56;;;;;;;9.63;5.18;;;19.10;60.60;;;;;;5139654;27;20063;-87
2022/05/02 11:18:08;;;;;;;17.40;6.20;;;19.10;60.40;;;;;;5139147;27;20493;-87
2022/05/02 11:21:03;;;;;;;8.32;5.70;;;;;;;;;;5139743;27;20162;-88
2022/05/02 11:24:03;;;;;;;7.00;5.45;;;19.20;57.60;;;;;;5154923;27;20160;-88
2022/05/02 11:27:04;;;;;;;8.18;5.05;;;19.20;60.40;;;;;;5139078;27;20398;-87
2022/05/02 11:29:55;;;;;;;10.02;5.22;;;;;;;;;;5154842;27;20038;-86
2022/05/02 11:32:46;;;;;;;10.80;4.85;;;;;;;;;;5138571;27;20041;-88
2022/05/02 11:35:37;;;;;;;8.25;5.18;;;;;;;;;;5138552;27;20038;-89
2022/05/02 11:38:24;;;;;;;7.93;4.78;;;;;;;;;;5154108;27;20451;-88
2022/05/02 11:41:22;;;;;;;6.43;4.57;;;19.70;58.00;;;;;;5138672;27;20041;-88
2022/05/02 11:44:11;;;;;;;7.32;5.05;;;;;;;;;;5138687;27;20038;-87
2022/05/02 11:47:25;;;;;;;8.02;4.53;;;19.50;53.40;;;;;;5138628;27;20033;-87
2022/05/02 11:50:10;;;;;;;5.45;4.05;;;;;;;;;;5138742;27;20061;-87
2022/05/02 11:52:56;;;;;;;7.00;4.57;;;19.30;55.20;;;;;;5138741;27;20049;-87
2022/05/02 11:55:42;;;;;;;6.88;4.60;;;;;;;;;;5154066;27;20114;-88
2022/05/02 11:58:35;;;;;;;11.00;5.30;;;19.50;56.20;;;;;;5138295;27;20122;-87
2022/05/02 12:01:27;;;;;;;8.02;5.30;;;19.60;56.40;;;;;;5138688;27;20073;-87
2022/05/02 12:04:17;;;;;;;8.50;5.53;;;;;;;;;;5139394;27;20038;-87
2022/05/02 12:07:08;;;;;;;11.93;5.97;;;20.10;56.30;;;;;;5138568;27;20110;-88
2022/05/02 12:10:00;;;;;;;8.70;5.53;;;;;;;;;;5138736;27;20083;-88
2022/05/02 12:12:51;;;;;;;7.30;5.60;;;;;;;;;;5138244;27;20038;-87
2022/05/02 12:15:55;;;;;;;6.88;5.22;;;;;;;;;;5153916;27;20079;-88
2022/05/02 12:18:56;;;;;;;7.53;5.47;;;;;;;;;;5138026;27;20074;-87
2022/05/02 12:21:46;;;;;;;7.80;5.28;;;;;;;;;;5137800;27;20508;-87
2022/05/02 12:24:33;;;;;;;9.15;5.90;;;;;;;;;;5137993;27;20038;-87
2022/05/02 12:27:17;;;;;;;7.35;4.97;;;;;;;;;;5138251;27;20414;-87
2022/05/02 12:30:02;;;;;;;6.63;4.80;;;;;;;;;;5138395;27;20138;-87
2022/05/02 12:32:47;;;;;;;11.32;5.90;;;;;;;;;;5137901;27;20037;-87
2022/05/02 12:35:36;;;;;;;10.50;5.35;;;;;;;;;;5137967;27;20071;-88
2022/05/02 12:38:28;;;;;;;7.93;5.28;;;;;;;;;;5138323;27;20087;-87
2022/05/02 12:41:13;;;;;;;9.82;5.93;;;;;;;;;;5138221;27;20082;-88
2022/05/02 12:44:08;;;;;;;8.07;5.47;;;;;;;;;;5154107;27;20038;-88
2022/05/02 12:46:53;;;;;;;9.10;5.35;;;;;;;;;;5138042;27;20079;-87
2022/05/02 12:49:41;;;;;;;7.32;5.05;;;;;;;;;;5137602;27;20083;-88
2022/05/02 12:52:28;;;;;;;9.57;5.43;;;;;;;;;;5138192;27;20041;-88
2022/05/02 12:55:21;;;;;;;6.60;5.40;;;;;;;;;;5138161;27;20038;-88
2022/05/02 13:01:10;;;;;;;6.55;4.15;;;;;;;;;;5157597;27;20413;-87
2022/05/02 13:03:55;;;;;;;6.65;4.93;;;;;;;;;;5141553;27;20079;-87
2022/05/02 13:06:41;;;;;;;8.98;4.55;;;;;;;;;;5141402;27;20038;-87
2022/05/02 13:09:35;;;;;;;7.10;4.35;;;;;;;;;;5141754;27;20042;-89
2022/05/02 13:12:22;;;;;;;6.30;4.38;;;;;;;;;;5141616;27;20049;-88
2022/05/02 13:15:07;;;;;;;7.88;4.20;;;;;;;;;;5141792;27;20079;-87
2022/05/02 13:18:02;;;;;;;7.07;5.20;;;;;;;;;;5141208;27;20073;-88
2022/05/02 13:21:01;;;;;;;7.10;5.47;;;;;;;;;;5140678;27;20049;-88
2022/05/02 13:23:48;;;;;;;9.85;5.80;;;;;;;;;;5141160;27;20041;-87
2022/05/02 13:26:40;;;;;;;6.55;5.10;;;;;;;;;;5141181;27;20066;-91
2022/05/02 13:29:40;;;;;;;8.82;5.18;;;;;;;;;;5141361;27;20071;-89
2022/05/02 13:32:30;;;;;;;9.13;6.00;;;;;;;;;;5141335;27;20037;-87
2022/05/02 13:35:17;;;;;;;7.68;5.32;;;;;;;;;;5141162;27;20107;-86
2022/05/02 13:38:14;;;;;;;7.70;5.45;;;;;;;;;;5141126;27;20034;-88
2022/05/02 13:41:14;;;;;;;8.38;5.03;;;;;;;;;;5140676;27;20137;-86
2022/05/02 13:44:06;;;;;;;6.32;4.90;;;;;;;;;;5140666;27;20498;-88
2022/05/02 13:46:59;;;;;;;7.80;5.32;;;;;;;;;;5140661;27;20033;-87
2022/05/02 13:50:01;;;;;;;12.35;5.57;;;;;;;;;;5140531;27;20193;-88
2022/05/02 13:53:24;;;;;;;8.07;5.30;;;19.90;53.50;;;;;;5140417;27;20099;-87
2022/05/02 13:56:09;;;;;;;9.10;4.97;;;;;;;;;;5156631;27;20125;-87
2022/05/02 13:58:54;;;;;;;6.88;4.93;;;;;;;;;;5155958;27;20071;-86
2022/05/02 14:01:58;;;;;;;7.68;4.95;;;19.90;53.70;;;;;;5155855;27;20083;-87
2022/05/02 14:04:51;;;;;;;6.85;4.78;;;;;;;;;;5156178;27;20038;-86
2022/05/02 14:07:39;;;;;;;6.40;4.30;;;;;;;;;;5139516;27;20060;-87
2022/05/02 14:10:24;;;;;;;7.85;4.63;;;;;;;;;;5156137;27;20041;-86
2022/05/02 14:13:19;;;;;;;6.63;4.05;;;;;;;;;;5140481;27;20102;-87
2022/05/02 14:16:05;;;;;;;8.77;5.05;;;;;;;;;;5140488;27;20038;-87
2022/05/02 14:18:50;;;;;;;6.43;4.30;;;;;;;;;;5139924;27;20030;-87
2022/05/02 14:22:05;;;;;;;6.82;3.53;;;;;;;;;;5140327;27;20091;-87
2022/05/02 14:24:48;;;;;;;6.18;3.80;;;;;;;;;;5155582;27;20061;-87
2022/05/02 14:27:33;;;;;;;6.45;4.22;;;;;;;;;;5125636;27;20042;-87
2022/05/02 14:30:21;;;;;;;7.55;4.20;;;;;;;;;;5140043;27;20046;-87
2022/05/02 14:33:09;;;;;;;7.50;4.63;;;;;;;;;;5156070;27;20561;-87
2022/05/02 14:35:56;;;;;;;5.47;3.97;;;;;;;;;;5139910;27;20041;-87
2022/05/02 14:38:41;;;;;;;7.32;4.28;;;;;;;;;;5140189;27;20041;-87
2022/05/02 14:41:25;;;;;;;5.78;3.88;;;;;;;;;;5140009;27;20073;-88
2022/05/02 14:44:12;;;;;;;8.75;4.32;;;;;;;;;;5140098;27;20041;-87
2022/05/02 14:47:00;;;;;;;6.82;4.15;;;;;;;;;;5140784;27;20550;-87
2022/05/02 14:49:45;;;;;;;5.15;3.75;;;;;;;;;;5139934;27;20524;-87
2022/05/02 14:52:35;;;;;;;5.18;4.20;;;;;;;;;;5139922;27;20052;-87
2022/05/02 14:55:20;;;;;;;6.43;4.68;;;;;;;;;;5155449;27;20049;-89
2022/05/02 14:58:09;;;;;;;6.35;4.65;;;;;;;;;;5139166;27;20038;-88
2022/05/02 15:01:00;;;;;;;5.88;3.88;;;;;;;;;;5139235;27;20459;-87
2022/05/02 15:03:46;;;;;;;5.93;3.80;;;;;;;;;;5155119;27;20078;-89
2022/05/02 15:06:35;;;;;;;7.15;4.35;;;;;;;;;;5155366;27;20485;-87
2022/05/02 15:12:49;;;;;;;6.32;3.85;;;;;;;;;;5155057;27;20055;-87
2022/05/02 15:15:46;;;;;;;6.05;3.65;;;;;;;;;;5139322;27;20053;-87
2022/05/02 15:18:36;;;;;;;7.03;4.10;;;;;;;;;;5139240;27;20029;-87
2022/05/02 15:21:23;;;;;;;7.38;4.22;;;;;;;;;;5139213;27;20049;-88
2022/05/02 15:24:26;;;;;;;5.75;4.00;;;;;;;;;;5138841;27;20033;-87
2022/05/02 15:36:50;;;;;;;7.90;4.65;;;;;;;;;;5154771;27;20090;-87
2022/05/02 15:39:38;;;;;;;6.72;4.28;;;;;;;;;;5139046;27;20038;-87
2022/05/02 15:42:23;;;;;;;6.15;4.10;;;;;;;;;;5139134;27;20095;-87
2022/05/02 15:45:20;;;;;;;9.25;3.88;;;;;;;;;;5138630;27;20049;-87
2022/05/02 15:48:24;;;;;;;11.23;4.15;;;;;;;;;;5138670;27;20496;-87
2022/05/02 15:51:15;;;;;;;7.85;3.88;;;;;;;;;;5154630;27;20064;-86
2022/05/02 15:54:18;;;;;;;5.90;4.38;;;17.90;64.60;;;;;;5138529;27;20388;-87
2022/05/02 15:57:12;;;;;;;6.23;3.87;;;;;;;;;;5158400;27;20045;-86
2022/05/02 16:00:14;;;;;;;;;;;17.60;65.20;;;;;;5157083;27;20295;-87
2022/05/02 16:03:04;;;;;;;6.63;3.63;;;;;;;;;;5155911;27;19926;-88
2022/05/02 16:05:56;;;;;;;6.50;3.90;;;;;;;;;;5140529;27;20042;-87
2022/05/02 16:11:44;;;;;;;5.85;2.88;;;;;;;;;;5177213;27;20040;-87
2022/05/02 16:14:29;;;;;;;5.28;3.10;;;;;;;;;;5161489;27;20041;-86
2022/05/02 16:17:18;;;;;;;6.28;3.47;;;;;;;;;;5163228;27;20036;-87
2022/05/02 16:20:03;;;;;;;5.47;2.88;;;;;;;;;;5162711;27;20068;-87
2022/05/02 16:22:48;;;;;;;4.75;2.85;;;17.00;65.00;;;;;;5150130;27;20405;-86
2022/05/02 16:25:39;;;;;;;3.80;2.55;;;16.90;64.60;;;;;;5141033;27;20046;-87
2022/05/02 16:28:27;;;;;;;4.38;2.72;;;;;;;;;;5140714;27;20030;-87
2022/05/02 16:31:12;;;;;;;7.05;2.70;;;;;;;;;;5141138;27;20034;-86
2022/05/02 16:34:02;;;;;;;4.90;3.03;;;;;;;;;;5159726;27;20039;-87
2022/05/02 16:36:47;;;;;;;4.07;2.55;;;;;;;;;;5143474;27;20489;-88
2022/05/02 16:39:34;;;;;;;4.55;2.33;;;;;;;;;;5142644;27;20057;-87
2022/05/02 16:42:20;;;;;;;4.32;2.10;;;;;;;;;;5158029;27;20049;-86
2022/05/02 16:45:05;;;;;;;3.85;1.83;;;;;;;;;;5157741;27;20413;-86
2022/05/02 16:47:50;;;;;;;2.78;1.60;;;;;;;;;;5142493;27;20041;-88
2022/05/02 16:50:40;;;;;;;2.63;1.50;;;15.90;63.40;;;;;;5128265;27;20095;-87
2022/05/02 16:53:25;;;;;;;4.72;2.00;;;;;;;;;;5142363;27;20061;-87
2022/05/02 16:56:10;;;;;;;3.28;1.70;;;;;;;;;;5157482;27;20038;-87
2022/05/02 16:58:55;;;;;;;4.35;1.80;;;;;;;;;;5142136;27;20037;-86
2022/05/02 17:01:39;;;;;;;2.20;1.42;;;;;;;;;;5142096;27;20121;-87
2022/05/02 17:04:24;;;;;;;2.33;1.27;;;;;;;;;;5127824;27;20117;-86
2022/05/02 17:07:13;;;;;;;2.47;1.08;;;;;;;;;;5127217;27;20041;-87
2022/05/02 17:09:58;;;;;;;3.03;1.13;;;;;;;;;;5141935;27;20562;-87
2022/05/02 17:12:43;;;;;;;2.70;1.10;;;;;;;;;;5141935;27;20034;-87